createdAt,value
2017-05-16T00:01:50.319Z,1.98
2017-05-16T00:04:18.248Z,1.84
2017-05-16T00:06:47.499Z,2.10
2017-05-16T00:09:16.434Z,1.96
2017-05-16T00:11:45.482Z,2.00
2017-05-16T00:14:13.796Z,1.90
2017-05-16T00:16:42.753Z,2.32
2017-05-16T00:19:11.431Z,2.66
2017-05-16T00:21:39.359Z,2.40
2017-05-16T00:24:07.731Z,2.46
2017-05-16T00:26:36.028Z,2.54
2017-05-16T00:29:04.326Z,2.74
2017-05-16T00:31:33.518Z,2.28
2017-05-16T00:34:02.392Z,2.10
2017-05-16T00:36:31.434Z,2.26
2017-05-16T00:38:59.806Z,2.20
2017-05-16T00:41:27.750Z,2.38
2017-05-16T00:43:55.707Z,2.32
2017-05-16T00:46:24.100Z,2.40
2017-05-16T00:48:52.774Z,2.98
2017-05-16T00:51:21.067Z,3.18
2017-05-16T00:53:50.022Z,2.98
2017-05-16T00:56:18.906Z,2.58
2017-05-16T00:58:47.195Z,3.34
2017-05-16T01:01:15.191Z,3.66
2017-05-16T01:03:43.528Z,2.96
2017-05-16T01:06:11.835Z,3.22
2017-05-16T01:08:40.888Z,2.78
2017-05-16T01:11:09.184Z,3.96
2017-05-16T01:13:37.110Z,2.26
2017-05-16T01:16:05.823Z,3.22
2017-05-16T01:18:34.119Z,2.78
2017-05-16T01:21:02.423Z,4.92
2017-05-16T01:23:31.350Z,4.08
2017-05-16T01:25:59.664Z,4.52
2017-05-16T01:28:27.975Z,7.02
2017-05-16T01:30:55.955Z,6.52
2017-05-16T01:33:24.307Z,6.42
2017-05-16T01:35:52.239Z,6.28
2017-05-16T01:38:20.595Z,6.46
2017-05-16T01:40:48.899Z,6.58
2017-05-16T01:43:17.199Z,6.74
2017-05-16T01:45:45.574Z,8.42
2017-05-16T01:48:13.509Z,7.52
2017-05-16T01:50:41.806Z,7.58
2017-05-16T01:53:10.292Z,9.48
2017-05-16T01:55:39.179Z,7.36
2017-05-16T01:58:07.111Z,8.06
2017-05-16T02:00:35.471Z,9.14
2017-05-16T02:03:03.770Z,9.18
2017-05-16T02:05:32.067Z,7.96
2017-05-16T02:08:00.802Z,7.64
2017-05-16T02:10:29.715Z,10.70
2017-05-16T02:12:58.779Z,10.44
2017-05-16T02:15:27.127Z,9.08
2017-05-16T02:17:56.016Z,7.96
2017-05-16T02:20:24.695Z,6.24
2017-05-16T02:22:53.646Z,5.04
2017-05-16T02:25:22.319Z,6.90
2017-05-16T02:27:50.621Z,7.38
2017-05-16T02:30:19.778Z,7.06
2017-05-16T02:32:48.654Z,6.42
2017-05-16T02:35:16.594Z,7.24
2017-05-16T02:37:44.951Z,7.48
2017-05-16T02:40:13.636Z,8.20
2017-05-16T02:42:41.947Z,10.10
2017-05-16T02:45:11.558Z,8.80
2017-05-16T02:47:39.482Z,9.52
2017-05-16T02:50:07.411Z,9.58
2017-05-16T02:52:35.779Z,11.80
2017-05-16T02:55:04.083Z,10.28
2017-05-16T02:57:32.014Z,7.98
2017-05-16T03:00:01.182Z,8.76
2017-05-16T03:02:30.074Z,9.66
2017-05-16T03:04:58.761Z,9.96
2017-05-16T03:07:27.409Z,8.98
2017-05-16T03:09:56.318Z,8.08
2017-05-16T03:12:24.654Z,6.06
2017-05-16T03:14:52.650Z,6.42
2017-05-16T03:17:20.575Z,6.04
2017-05-16T03:19:48.870Z,7.14
2017-05-16T03:22:17.615Z,7.34
2017-05-16T03:24:45.944Z,6.70
2017-05-16T03:27:14.834Z,6.10
2017-05-16T03:29:43.195Z,9.12
2017-05-16T03:32:11.119Z,6.64
2017-05-16T03:34:39.414Z,7.24
2017-05-16T03:39:42.676Z,8.60
2017-05-16T03:42:11.793Z,8.80
2017-05-16T03:44:40.679Z,6.82
2017-05-16T03:47:08.616Z,6.90
2017-05-16T03:49:36.962Z,5.40
2017-05-16T03:52:05.834Z,4.88
2017-05-16T03:54:34.500Z,3.68
2017-05-16T03:57:02.654Z,5.18
2017-05-16T03:59:30.581Z,7.08
2017-05-16T04:01:58.900Z,3.78
2017-05-16T04:04:27.251Z,3.52
2017-05-16T04:06:55.578Z,4.68
2017-05-16T04:09:23.895Z,5.20
2017-05-16T04:11:52.243Z,3.70
2017-05-16T04:14:20.558Z,5.56
2017-05-16T04:16:49.438Z,7.58
2017-05-16T04:19:18.003Z,7.54
2017-05-16T04:21:45.939Z,8.20
2017-05-16T04:24:14.624Z,10.88
2017-05-16T04:26:42.976Z,9.36
2017-05-16T04:29:11.284Z,8.82
2017-05-16T04:31:39.950Z,11.58
2017-05-16T04:34:09.052Z,11.70
2017-05-16T04:36:37.351Z,9.76
2017-05-16T04:39:06.343Z,13.58
2017-05-16T04:41:34.716Z,10.82
2017-05-16T04:44:02.644Z,10.56
2017-05-16T04:46:31.315Z,9.82
2017-05-16T04:48:59.679Z,8.90
2017-05-16T04:51:27.983Z,8.64
2017-05-16T04:53:56.326Z,10.84
2017-05-16T04:56:25.102Z,8.94
2017-05-16T04:58:54.146Z,7.06
2017-05-16T05:01:22.456Z,10.50
2017-05-16T05:03:54.482Z,10.76
2017-05-16T05:06:22.778Z,10.48
2017-05-16T05:08:51.659Z,8.26
2017-05-16T05:11:20.751Z,10.44
2017-05-16T05:13:48.683Z,10.22
2017-05-16T05:16:17.568Z,7.80
2017-05-16T05:18:46.420Z,8.14
2017-05-16T05:21:14.346Z,7.86
2017-05-16T05:23:42.284Z,7.60
2017-05-16T05:26:10.631Z,5.40
2017-05-16T05:28:38.555Z,7.10
2017-05-16T05:31:06.480Z,10.30
2017-05-16T05:33:34.826Z,8.74
2017-05-16T05:36:03.486Z,8.36
2017-05-16T05:38:31.787Z,15.06
2017-05-16T05:41:01.083Z,11.26
2017-05-16T05:43:30.136Z,12.00
2017-05-16T05:45:58.449Z,10.94
2017-05-16T05:48:26.831Z,10.08
2017-05-16T05:50:55.742Z,10.66
2017-05-16T05:53:23.671Z,9.48
2017-05-16T05:55:52.028Z,10.52
2017-05-16T05:58:20.830Z,10.94
2017-05-16T06:00:49.128Z,8.78
2017-05-16T06:03:18.214Z,9.62
2017-05-16T06:05:46.152Z,10.64
2017-05-16T06:08:15.190Z,8.98
2017-05-16T06:10:44.171Z,8.90
2017-05-16T06:13:12.471Z,10.26
2017-05-16T06:15:41.511Z,9.42
2017-05-16T06:18:11.131Z,8.42
2017-05-16T06:20:40.014Z,11.14
2017-05-16T06:23:08.306Z,8.60
2017-05-16T06:25:37.390Z,8.60
2017-05-16T06:28:05.682Z,11.38
2017-05-16T06:30:33.983Z,11.64
2017-05-16T06:33:02.919Z,8.72
2017-05-16T06:35:31.581Z,6.12
2017-05-16T06:38:00.622Z,8.52
2017-05-16T06:40:29.009Z,11.62
2017-05-16T06:42:58.049Z,9.00
2017-05-16T06:45:26.012Z,7.56
2017-05-16T06:47:53.998Z,6.84
2017-05-16T06:50:22.674Z,7.74
2017-05-16T06:52:50.974Z,8.18
2017-05-16T06:55:19.343Z,13.48
2017-05-16T06:57:47.642Z,8.60
2017-05-16T07:00:15.958Z,10.34
2017-05-16T07:02:45.120Z,9.18
2017-05-16T07:05:13.802Z,10.14
2017-05-16T07:07:42.105Z,10.36
2017-05-16T07:10:10.462Z,9.14
2017-05-16T07:12:39.339Z,8.50
2017-05-16T07:15:08.007Z,7.36
2017-05-16T07:17:37.378Z,7.92
2017-05-16T07:20:06.807Z,6.94
2017-05-16T07:22:34.731Z,6.12
2017-05-16T07:25:03.819Z,4.48
2017-05-16T07:27:31.743Z,3.76
2017-05-16T07:30:00.049Z,3.28
2017-05-16T07:32:28.066Z,3.40
2017-05-16T07:34:57.112Z,3.44
2017-05-16T07:37:25.434Z,3.40
2017-05-16T07:39:54.520Z,3.22
2017-05-16T07:42:22.453Z,2.70
2017-05-16T07:44:51.490Z,3.68
2017-05-16T07:47:19.832Z,2.94
2017-05-16T07:49:48.127Z,3.18
2017-05-16T07:52:17.005Z,3.28
2017-05-16T07:54:45.755Z,3.50
2017-05-16T07:57:14.061Z,3.12
2017-05-16T07:59:42.945Z,3.10
2017-05-16T08:02:11.654Z,3.68
2017-05-16T08:04:39.578Z,3.44
2017-05-16T08:07:07.501Z,3.26
2017-05-16T08:09:35.890Z,2.98
2017-05-16T08:12:03.816Z,3.10
2017-05-16T08:14:32.487Z,3.16
2017-05-16T08:17:00.843Z,3.00
2017-05-16T08:19:29.138Z,2.70
2017-05-16T08:21:57.450Z,3.28
2017-05-16T08:24:25.800Z,2.56
2017-05-16T08:26:54.851Z,3.50
2017-05-16T08:29:22.792Z,3.02
2017-05-16T08:31:51.898Z,3.48
2017-05-16T08:34:20.198Z,3.86
2017-05-16T08:36:49.081Z,3.64
2017-05-16T08:39:17.164Z,3.50
2017-05-16T08:41:46.206Z,4.24
2017-05-16T08:44:14.519Z,3.40
2017-05-16T08:46:42.527Z,3.82
2017-05-16T08:49:10.823Z,3.14
2017-05-16T08:51:39.862Z,4.02
2017-05-16T08:54:08.571Z,3.22
2017-05-16T08:56:37.450Z,3.32
2017-05-16T08:59:06.122Z,3.56
2017-05-16T09:01:34.118Z,2.78
2017-05-16T09:04:02.043Z,2.94
2017-05-16T09:06:30.350Z,2.84
2017-05-16T09:08:58.723Z,2.88
2017-05-16T09:11:27.417Z,2.72
2017-05-16T09:13:56.309Z,2.76
2017-05-16T09:16:25.431Z,3.22
2017-05-16T09:18:53.738Z,2.34
2017-05-16T09:21:22.617Z,2.88
2017-05-16T09:23:51.474Z,3.42
2017-05-16T09:26:19.406Z,3.04
2017-05-16T09:28:49.643Z,3.20
2017-05-16T09:31:17.630Z,2.04
2017-05-16T09:33:45.943Z,2.74
2017-05-16T09:36:14.260Z,2.72
2017-05-16T09:38:43.213Z,2.82
2017-05-16T09:41:11.878Z,3.62
2017-05-16T09:43:39.810Z,3.16
2017-05-16T09:46:08.489Z,2.44
2017-05-16T09:48:36.415Z,3.48
2017-05-16T09:51:04.711Z,2.62
2017-05-16T09:53:33.663Z,2.36
2017-05-16T09:56:01.954Z,2.34
2017-05-16T09:58:30.841Z,3.02
2017-05-16T10:00:59.579Z,2.88
2017-05-16T10:03:27.894Z,2.42
2017-05-16T10:05:55.838Z,2.86
2017-05-16T10:08:25.136Z,2.74
2017-05-16T10:10:53.066Z,3.38
2017-05-16T10:13:21.368Z,2.48
2017-05-16T10:15:49.706Z,2.40
2017-05-16T10:18:17.635Z,2.86
2017-05-16T10:20:46.511Z,2.94
2017-05-16T10:23:16.609Z,2.14
2017-05-16T10:25:45.570Z,1.84
2017-05-16T10:28:13.872Z,1.80
2017-05-16T10:30:42.271Z,2.08
2017-05-16T10:33:10.567Z,3.82
2017-05-16T10:38:07.050Z,1.66
2017-05-16T10:40:35.346Z,2.06
2017-05-16T10:43:03.647Z,2.30
2017-05-16T10:45:31.630Z,1.54
2017-05-16T10:47:59.939Z,2.00
2017-05-16T10:50:28.983Z,2.36
2017-05-16T10:52:57.360Z,2.28
2017-05-16T10:55:25.294Z,2.34
2017-05-16T10:57:54.175Z,2.06
2017-05-16T11:00:23.113Z,1.68
2017-05-16T11:02:51.413Z,2.26
2017-05-16T11:05:19.712Z,1.48
2017-05-16T11:07:47.699Z,2.04
2017-05-16T11:10:16.001Z,1.90
2017-05-16T11:12:44.310Z,2.18
2017-05-16T11:15:12.530Z,2.04
2017-05-16T11:17:40.827Z,1.60
2017-05-16T11:20:08.751Z,2.04
2017-05-16T11:22:37.677Z,1.80
2017-05-16T11:25:06.551Z,1.68
2017-05-16T11:27:35.648Z,1.98
2017-05-16T11:30:03.990Z,2.00
2017-05-16T11:32:31.915Z,2.30
2017-05-16T11:35:00.972Z,1.78
2017-05-16T11:37:29.325Z,2.52
2017-05-16T11:39:57.261Z,2.56
2017-05-16T11:42:26.155Z,1.88
2017-05-16T11:44:55.154Z,1.88
2017-05-16T11:47:24.192Z,3.30
2017-05-16T11:49:52.490Z,3.20
2017-05-16T11:52:21.529Z,2.56
2017-05-16T11:54:50.198Z,1.42
2017-05-16T11:57:18.504Z,1.74
2017-05-16T11:59:47.451Z,1.60
2017-05-16T12:02:16.337Z,1.40
2017-05-16T12:04:45.007Z,1.62
2017-05-16T12:07:13.358Z,1.48
2017-05-16T12:09:41.654Z,1.96
2017-05-16T12:12:10.690Z,2.04
2017-05-16T12:14:39.626Z,1.24
2017-05-16T12:17:08.502Z,1.60
2017-05-16T12:19:37.166Z,1.64
2017-05-16T12:22:05.166Z,2.06
2017-05-16T12:24:33.477Z,1.36
2017-05-16T12:27:01.423Z,1.86
2017-05-16T12:29:29.651Z,1.98
2017-05-16T12:31:58.447Z,1.44
2017-05-16T12:34:27.341Z,1.50
2017-05-16T12:36:56.086Z,1.70
2017-05-16T12:39:24.394Z,2.46
2017-05-16T12:41:52.352Z,2.40
2017-05-16T12:44:20.694Z,1.16
2017-05-16T12:46:49.569Z,1.28
2017-05-16T12:49:18.233Z,1.24
2017-05-16T12:51:47.158Z,1.70
2017-05-16T12:54:15.473Z,1.46
2017-05-16T12:56:44.374Z,1.40
2017-05-16T12:59:13.111Z,1.32
2017-05-16T13:01:41.039Z,1.96
2017-05-16T13:04:09.706Z,1.24
2017-05-16T13:06:38.060Z,1.52
2017-05-16T13:09:06.952Z,1.70
2017-05-16T13:11:35.256Z,1.26
2017-05-16T13:14:04.038Z,1.80
2017-05-16T13:16:32.351Z,1.38
2017-05-16T13:19:00.673Z,1.34
2017-05-16T13:21:28.703Z,1.38
2017-05-16T13:23:57.595Z,1.64
2017-05-16T13:26:26.667Z,1.90
2017-05-16T13:28:55.447Z,1.28
2017-05-16T13:31:24.341Z,1.24
2017-05-16T13:33:52.275Z,1.18
2017-05-16T13:36:21.845Z,1.48
2017-05-16T13:38:50.507Z,1.24
2017-05-16T13:41:19.386Z,1.30
2017-05-16T13:43:47.366Z,1.32
2017-05-16T13:46:15.696Z,1.24
2017-05-16T13:48:44.595Z,1.76
2017-05-16T13:51:13.331Z,1.52
2017-05-16T13:53:41.266Z,1.48
2017-05-16T13:56:09.562Z,1.30
2017-05-16T13:58:37.566Z,1.42
2017-05-16T14:01:06.625Z,1.78
2017-05-16T14:03:34.914Z,1.24
2017-05-16T14:06:03.853Z,1.26
2017-05-16T14:08:32.896Z,1.55
2017-05-16T14:11:01.778Z,1.60
2017-05-16T14:13:30.131Z,1.34
2017-05-16T14:15:58.436Z,1.64
2017-05-16T14:18:26.367Z,1.70
2017-05-16T14:20:54.715Z,1.54
2017-05-16T14:23:22.641Z,1.40
2017-05-16T14:25:50.574Z,1.10
2017-05-16T14:28:18.935Z,1.30
2017-05-16T14:30:46.854Z,1.80
2017-05-16T14:33:15.166Z,0.98
2017-05-16T14:35:43.157Z,1.76
2017-05-16T14:38:11.467Z,1.30
2017-05-16T14:40:39.411Z,1.16
2017-05-16T14:43:07.758Z,1.00
2017-05-16T14:45:36.803Z,1.64
2017-05-16T14:48:05.689Z,1.30
2017-05-16T14:50:34.614Z,1.48
2017-05-16T14:53:02.538Z,1.32
2017-05-16T14:55:30.835Z,1.30
2017-05-16T14:57:59.210Z,1.32
2017-05-16T15:00:27.539Z,1.44
2017-05-16T15:02:56.233Z,3.44
2017-05-16T15:05:24.915Z,1.86
2017-05-16T15:07:53.223Z,1.70
2017-05-16T15:10:21.516Z,1.56
2017-05-16T15:12:50.438Z,1.38
2017-05-16T15:16:05.702Z,1.44
2017-05-16T15:18:34.071Z,1.66
2017-05-16T15:21:02.368Z,1.38
2017-05-16T15:23:30.308Z,1.32
2017-05-16T15:25:59.271Z,1.52
2017-05-16T15:28:27.999Z,1.36
2017-05-16T15:30:56.322Z,1.30
2017-05-16T15:33:25.289Z,1.94
2017-05-16T15:35:53.586Z,1.00
2017-05-16T15:38:21.878Z,1.20
2017-05-16T15:40:50.231Z,1.52
2017-05-16T15:43:18.160Z,1.30
2017-05-16T15:45:46.110Z,1.30
2017-05-16T15:48:15.219Z,1.60
2017-05-16T15:50:44.115Z,1.64
2017-05-16T15:53:12.791Z,1.16
2017-05-16T15:55:41.531Z,1.72
2017-05-16T15:58:09.831Z,1.60
2017-05-16T16:00:38.127Z,1.28
2017-05-16T16:03:07.211Z,1.50
2017-05-16T16:05:35.511Z,1.70
2017-05-16T16:08:03.802Z,1.50
2017-05-16T16:10:32.530Z,2.06
2017-05-16T16:13:01.427Z,2.18
2017-05-16T16:15:29.730Z,1.68
2017-05-16T16:17:57.709Z,1.60
2017-05-16T16:20:26.020Z,2.04
2017-05-16T16:22:55.523Z,2.38
2017-05-16T16:25:24.247Z,2.26
2017-05-16T16:27:52.174Z,1.72
2017-05-16T16:30:20.098Z,1.84
2017-05-16T16:32:48.759Z,1.88
2017-05-16T16:35:17.054Z,2.46
2017-05-16T16:37:45.952Z,2.76
2017-05-16T16:40:14.930Z,1.66
2017-05-16T16:42:42.862Z,1.16
2017-05-16T16:45:11.894Z,1.74
2017-05-16T16:47:40.254Z,1.24
2017-05-16T16:50:09.133Z,1.42
2017-05-16T16:52:37.799Z,1.30
2017-05-16T16:55:06.166Z,1.52
2017-05-16T16:57:34.468Z,1.40
2017-05-16T17:00:03.506Z,1.54
2017-05-16T17:02:31.891Z,1.50
2017-05-16T17:05:00.773Z,1.76
2017-05-16T17:07:29.661Z,1.64
2017-05-16T17:09:58.767Z,1.30
2017-05-16T17:12:27.671Z,1.32
2017-05-16T17:14:56.367Z,1.32
2017-05-16T17:17:25.308Z,10.80
2017-05-16T17:19:53.598Z,6.38
2017-05-16T17:22:22.479Z,1.30
2017-05-16T17:24:50.843Z,1.60
2017-05-16T17:27:19.134Z,1.56
2017-05-16T17:29:48.176Z,1.62
2017-05-16T17:32:17.111Z,1.46
2017-05-16T17:34:46.176Z,1.48
2017-05-16T17:37:14.115Z,1.38
2017-05-16T17:39:43.408Z,1.84
2017-05-16T17:42:11.332Z,1.68
2017-05-16T17:44:39.627Z,1.16
2017-05-16T17:47:07.634Z,1.46
2017-05-16T17:49:35.926Z,1.70
2017-05-16T17:52:03.842Z,1.64
2017-05-16T17:54:32.465Z,1.50
2017-05-16T17:57:01.388Z,2.08
2017-05-16T17:59:30.418Z,1.52
2017-05-16T18:01:59.356Z,1.50
2017-05-16T18:04:27.658Z,1.40
2017-05-16T18:06:56.552Z,1.76
2017-05-16T18:09:25.523Z,1.70
2017-05-16T18:11:53.823Z,1.68
2017-05-16T18:14:22.114Z,1.56
2017-05-16T18:16:51.048Z,1.26
2017-05-16T18:19:20.081Z,1.70
2017-05-16T18:21:48.954Z,1.62
2017-05-16T18:24:18.105Z,1.40
2017-05-16T18:26:46.766Z,2.08
2017-05-16T18:29:15.810Z,1.24
2017-05-16T18:31:44.754Z,1.56
2017-05-16T18:34:13.634Z,1.40
2017-05-16T18:36:42.675Z,1.60
2017-05-16T18:39:11.271Z,1.66
2017-05-16T18:41:40.142Z,1.54
2017-05-16T18:44:08.430Z,1.60
2017-05-16T18:46:36.416Z,1.70
2017-05-16T18:49:05.143Z,1.70
2017-05-16T18:51:34.019Z,1.50
2017-05-16T18:54:03.106Z,1.80
2017-05-16T18:56:32.143Z,1.26
2017-05-16T18:59:01.040Z,1.70
2017-05-16T19:01:29.035Z,1.60
2017-05-16T19:03:58.084Z,1.56
2017-05-16T19:06:27.461Z,1.64
2017-05-16T19:08:57.082Z,2.08
2017-05-16T19:11:26.124Z,1.60
2017-05-16T19:13:55.014Z,1.98
2017-05-16T19:16:23.946Z,2.86
2017-05-16T19:18:51.866Z,5.28
2017-05-16T19:21:19.794Z,2.86
2017-05-16T19:23:48.674Z,2.10
2017-05-16T19:26:16.983Z,2.22
2017-05-16T19:28:45.283Z,1.80
2017-05-16T19:31:13.638Z,1.88
2017-05-16T19:33:42.523Z,1.70
2017-05-16T19:36:11.183Z,2.24
2017-05-16T19:38:39.978Z,1.78
2017-05-16T19:41:08.854Z,2.26
2017-05-16T19:43:37.151Z,1.64
2017-05-16T19:46:05.129Z,1.98
2017-05-16T19:48:33.059Z,1.98
2017-05-16T19:51:01.363Z,1.92
2017-05-16T19:53:30.303Z,1.96
2017-05-16T19:55:59.351Z,2.46
2017-05-16T19:58:28.037Z,2.20
2017-05-16T20:00:56.499Z,2.20
2017-05-16T20:03:25.394Z,2.16
2017-05-16T20:05:54.290Z,2.36
2017-05-16T20:08:23.274Z,2.46
2017-05-16T20:10:51.202Z,2.60
2017-05-16T20:13:19.497Z,1.90
2017-05-16T20:15:47.883Z,2.24
2017-05-16T20:18:16.754Z,2.56
2017-05-16T20:20:45.067Z,2.24
2017-05-16T20:23:13.799Z,4.32
2017-05-16T20:25:41.722Z,3.66
2017-05-16T20:28:10.014Z,3.68
2017-05-16T20:30:39.286Z,2.18
2017-05-16T20:33:08.165Z,3.06
2017-05-16T20:35:36.454Z,2.00
2017-05-16T20:38:05.556Z,2.42
2017-05-16T20:40:33.484Z,2.34
2017-05-16T20:43:02.519Z,2.34
2017-05-16T20:45:30.889Z,1.68
2017-05-16T20:47:59.774Z,2.00
2017-05-16T20:50:28.451Z,2.64
2017-05-16T20:52:56.427Z,2.52
2017-05-16T20:55:25.996Z,2.86
2017-05-16T20:57:55.568Z,1.80
2017-05-16T21:00:25.461Z,2.80
2017-05-16T21:02:53.779Z,2.26
2017-05-16T21:05:22.653Z,2.16
2017-05-16T21:07:50.991Z,2.10
2017-05-16T21:10:19.863Z,2.54
2017-05-16T21:12:48.155Z,2.36
2017-05-16T21:15:17.494Z,1.92
2017-05-16T21:17:46.376Z,2.54
2017-05-16T21:20:14.691Z,2.40
2017-05-16T21:22:44.056Z,2.66
2017-05-16T21:25:12.359Z,2.22
2017-05-16T21:27:41.247Z,2.52
2017-05-16T21:30:09.974Z,2.12
2017-05-16T21:32:37.902Z,2.68
2017-05-16T21:35:06.948Z,2.20
2017-05-16T21:37:35.316Z,2.10
2017-05-16T21:40:04.197Z,2.90
2017-05-16T21:42:32.866Z,2.20
2017-05-16T21:45:02.582Z,2.36
2017-05-16T21:47:31.257Z,2.42
2017-05-16T21:50:00.157Z,2.36
2017-05-16T21:52:28.995Z,2.48
2017-05-16T21:54:56.939Z,2.70
2017-05-16T21:57:25.249Z,2.96
2017-05-16T21:59:54.082Z,2.28
2017-05-16T22:02:22.974Z,1.94
2017-05-16T22:04:50.899Z,2.70
2017-05-16T22:07:19.251Z,2.60
2017-05-16T22:09:47.552Z,2.84
2017-05-16T22:12:15.486Z,2.88
2017-05-16T22:14:44.220Z,2.82
2017-05-16T22:17:12.521Z,2.50
2017-05-16T22:19:40.446Z,2.82
2017-05-16T22:22:08.799Z,2.52
2017-05-16T22:24:36.719Z,2.50
2017-05-16T22:27:05.595Z,3.10
2017-05-16T22:29:34.306Z,2.72
2017-05-16T22:32:02.596Z,3.30
2017-05-16T22:34:30.915Z,2.70
2017-05-16T22:36:59.169Z,3.10
2017-05-16T22:39:27.507Z,2.88
2017-05-16T22:41:56.419Z,3.10
2017-05-16T22:44:25.495Z,3.40
2017-05-16T22:46:53.800Z,3.92
2017-05-16T22:49:22.102Z,3.62
2017-05-16T22:51:50.451Z,3.66
2017-05-16T22:54:19.491Z,3.84
2017-05-16T22:56:47.786Z,3.36
2017-05-16T22:59:17.099Z,3.38
2017-05-16T23:01:46.163Z,3.30
2017-05-16T23:04:15.219Z,3.16
2017-05-16T23:06:44.382Z,3.42
2017-05-16T23:09:13.051Z,3.60
2017-05-16T23:11:41.347Z,4.02
2017-05-16T23:14:10.458Z,3.36
2017-05-16T23:16:38.383Z,3.24
2017-05-16T23:19:07.265Z,3.48
2017-05-16T23:21:36.199Z,3.82
2017-05-16T23:24:04.871Z,3.50
2017-05-16T23:26:33.167Z,4.52
2017-05-16T23:29:01.735Z,3.50
2017-05-16T23:31:30.626Z,4.76
2017-05-16T23:33:59.327Z,5.52
2017-05-16T23:36:27.691Z,4.50
2017-05-16T23:38:55.643Z,5.60
2017-05-16T23:41:23.578Z,4.76
2017-05-16T23:43:52.315Z,4.74
2017-05-16T23:46:20.606Z,5.36
2017-05-16T23:48:48.542Z,5.94
2017-05-16T23:51:17.670Z,5.86
2017-05-16T23:53:45.980Z,7.18
2017-05-16T23:56:14.874Z,6.22
2017-05-16T23:58:43.605Z,7.80
